Athensville, Illinois
Current Conditions -  °F | °C
As of 11:35 AM on Wednesday 26 Nov 2014 (Local Time) from KIJX Reporting Station
Overcast Overcast  
Wind Chill: 24°   Ceiling: 4900
Heat Index: 34°   Visibility: 10mi
Dew Point: 30°   Wind: 15mph
Humidity: 85%   Direction: 100°E
Pressure: 30.01"   Gusts: 18mph
Location:  39.491°N, 90.2996°W
Report Text: KIJX 261735Z AUTO 10013G16KT 10SM SCT039 OVC049 01/M01 A3001 RMK AO2 T00101013
Loading
Personal Weather Stations






























Interactive Weather Map New forecast layout! Learn more

10-Day Weather Forecast

Advertisements
Track Severe Weather on mobile